Kelso, Missouri
Current Conditions -  °F | °C
As of 6:53 AM on Thursday 27 Nov 2014 (Local Time) from KCGI Reporting Station
Overcast Overcast  
Wind Chill: 23°   Ceiling: 1700
Heat Index: 33°   Visibility: 10mi
Dew Point: 28°   Wind: 14mph
Humidity: 82%   Direction: 350°N
Pressure: 30.41"   Gusts: NA
Location:  37.19°N, 89.55°W
Report Text: KCGI 271253Z 35012KT 10SM OVC017 01/M02 A3041 RMK AO2 SLP301 T00061022
Loading
Personal Weather Stations






























Interactive Weather Map New forecast layout! Learn more

10-Day Weather Forecast

Advertisements
Track Severe Weather on mobile